sensor_id;sensor_type;location;lat;lon;timestamp;temperature;humidity
72202;SHT30;60105;54.956;73.412;2023-03-23T00:00:53;0.42;61.77
72202;SHT30;60105;54.956;73.412;2023-03-23T00:03:55;0.40;61.87
72202;SHT30;60105;54.956;73.412;2023-03-23T00:07:04;0.40;61.67
72202;SHT30;60105;54.956;73.412;2023-03-23T00:10:06;0.40;61.36
72202;SHT30;60105;54.956;73.412;2023-03-23T00:13:13;0.27;61.50
72202;SHT30;60105;54.956;73.412;2023-03-23T00:16:25;0.22;61.77
72202;SHT30;60105;54.956;73.412;2023-03-23T00:19:38;0.15;62.01
72202;SHT30;60105;54.956;73.412;2023-03-23T00:22:51;0.10;61.68
72202;SHT30;60105;54.956;73.412;2023-03-23T00:25:54;-0.01;62.02
72202;SHT30;60105;54.956;73.412;2023-03-23T00:29:07;-0.01;62.10
72202;SHT30;60105;54.956;73.412;2023-03-23T00:32:21;0.01;61.50
72202;SHT30;60105;54.956;73.412;2023-03-23T00:35:28;0.03;61.42
72202;SHT30;60105;54.956;73.412;2023-03-23T00:38:35;0.01;61.41
72202;SHT30;60105;54.956;73.412;2023-03-23T00:41:48;-0.06;61.29
72202;SHT30;60105;54.956;73.412;2023-03-23T00:44:50;-0.15;61.27
72202;SHT30;60105;54.956;73.412;2023-03-23T00:47:52;-0.08;61.27
72202;SHT30;60105;54.956;73.412;2023-03-23T00:50:53;-0.09;61.06
72202;SHT30;60105;54.956;73.412;2023-03-23T00:53:55;-0.11;60.80
72202;SHT30;60105;54.956;73.412;2023-03-23T00:56:57;-0.25;60.99
72202;SHT30;60105;54.956;73.412;2023-03-23T00:59:58;-0.25;60.65
72202;SHT30;60105;54.956;73.412;2023-03-23T01:03:00;-0.35;60.94
72202;SHT30;60105;54.956;73.412;2023-03-23T01:06:06;-0.50;61.09
72202;SHT30;60105;54.956;73.412;2023-03-23T01:09:15;-0.53;60.47
72202;SHT30;60105;54.956;73.412;2023-03-23T01:12:25;-0.85;61.04
72202;SHT30;60105;54.956;73.412;2023-03-23T01:15:31;-0.74;61.27
72202;SHT30;60105;54.956;73.412;2023-03-23T01:18:32;-0.66;60.18
72202;SHT30;60105;54.956;73.412;2023-03-23T01:21:48;-0.63;59.77
72202;SHT30;60105;54.956;73.412;2023-03-23T01:24:50;-0.64;59.67
72202;SHT30;60105;54.956;73.412;2023-03-23T01:27:51;-0.73;59.51
72202;SHT30;60105;54.956;73.412;2023-03-23T01:31:02;-0.66;59.10
72202;SHT30;60105;54.956;73.412;2023-03-23T01:34:04;-0.70;58.58
72202;SHT30;60105;54.956;73.412;2023-03-23T01:37:06;-0.66;58.51
72202;SHT30;60105;54.956;73.412;2023-03-23T01:40:09;-0.72;58.82
72202;SHT30;60105;54.956;73.412;2023-03-23T01:43:15;-0.53;58.51
72202;SHT30;60105;54.956;73.412;2023-03-23T01:46:18;-0.43;57.59
72202;SHT30;60105;54.956;73.412;2023-03-23T01:49:35;-0.39;57.69
72202;SHT30;60105;54.956;73.412;2023-03-23T01:52:49;-0.39;57.27
72202;SHT30;60105;54.956;73.412;2023-03-23T01:55:53;-0.48;57.42
72202;SHT30;60105;54.956;73.412;2023-03-23T01:59:08;-0.39;57.28
72202;SHT30;60105;54.956;73.412;2023-03-23T02:02:18;-0.39;57.11
72202;SHT30;60105;54.956;73.412;2023-03-23T02:05:28;-0.35;57.28
72202;SHT30;60105;54.956;73.412;2023-03-23T02:08:35;-0.26;57.00
72202;SHT30;60105;54.956;73.412;2023-03-23T02:11:47;-0.29;56.97
72202;SHT30;60105;54.956;73.412;2023-03-23T02:14:56;-0.36;56.84
72202;SHT30;60105;54.956;73.412;2023-03-23T02:18:06;-0.29;57.21
72202;SHT30;60105;54.956;73.412;2023-03-23T02:32:07;-0.23;56.34
72202;SHT30;60105;54.956;73.412;2023-03-23T02:35:29;-0.12;56.28
72202;SHT30;60105;54.956;73.412;2023-03-23T02:41:56;0.30;55.40
72202;SHT30;60105;54.956;73.412;2023-03-23T02:45:03;0.42;54.56
72202;SHT30;60105;54.956;73.412;2023-03-23T02:48:07;0.57;54.53
72202;SHT30;60105;54.956;73.412;2023-03-23T02:51:49;0.73;54.36
72202;SHT30;60105;54.956;73.412;2023-03-23T02:54:55;0.73;54.34
72202;SHT30;60105;54.956;73.412;2023-03-23T02:57:57;0.83;53.64
72202;SHT30;60105;54.956;73.412;2023-03-23T03:00:59;0.89;54.06
72202;SHT30;60105;54.956;73.412;2023-03-23T03:04:10;1.02;54.33
72202;SHT30;60105;54.956;73.412;2023-03-23T03:17:26;1.47;54.13
72202;SHT30;60105;54.956;73.412;2023-03-23T03:20:30;1.66;53.84
72202;SHT30;60105;54.956;73.412;2023-03-23T03:23:34;1.62;54.04
72202;SHT30;60105;54.956;73.412;2023-03-23T03:26:49;1.78;53.52
72202;SHT30;60105;54.956;73.412;2023-03-23T03:30:26;1.87;53.82
72202;SHT30;60105;54.956;73.412;2023-03-23T03:33:32;1.88;53.68
72202;SHT30;60105;54.956;73.412;2023-03-23T03:36:48;1.83;53.75
72202;SHT30;60105;54.956;73.412;2023-03-23T03:39:57;1.93;54.28
72202;SHT30;60105;54.956;73.412;2023-03-23T03:43:04;1.88;54.64
72202;SHT30;60105;54.956;73.412;2023-03-23T03:46:17;1.91;54.92
72202;SHT30;60105;54.956;73.412;2023-03-23T03:49:28;2.03;54.65
72202;SHT30;60105;54.956;73.412;2023-03-23T03:52:31;1.90;55.23
72202;SHT30;60105;54.956;73.412;2023-03-23T03:55:33;2.01;55.41
72202;SHT30;60105;54.956;73.412;2023-03-23T03:58:44;2.18;54.81
72202;SHT30;60105;54.956;73.412;2023-03-23T04:01:56;2.41;55.13
72202;SHT30;60105;54.956;73.412;2023-03-23T04:04:57;2.52;54.81
72202;SHT30;60105;54.956;73.412;2023-03-23T04:07:58;2.43;55.04
72202;SHT30;60105;54.956;73.412;2023-03-23T04:11:48;2.45;55.29
72202;SHT30;60105;54.956;73.412;2023-03-23T04:15:08;2.38;56.56
72202;SHT30;60105;54.956;73.412;2023-03-23T04:18:11;2.41;56.93
72202;SHT30;60105;54.956;73.412;2023-03-23T04:21:49;2.46;57.14
72202;SHT30;60105;54.956;73.412;2023-03-23T04:24:52;2.77;57.18
72202;SHT30;60105;54.956;73.412;2023-03-23T04:28:04;2.93;56.44
72202;SHT30;60105;54.956;73.412;2023-03-23T04:31:48;2.76;57.60
72202;SHT30;60105;54.956;73.412;2023-03-23T04:35:06;2.53;58.13
72202;SHT30;60105;54.956;73.412;2023-03-23T04:38:16;2.48;58.55
72202;SHT30;60105;54.956;73.412;2023-03-23T04:41:48;2.45;58.62
72202;SHT30;60105;54.956;73.412;2023-03-23T04:45:00;2.52;59.14
72202;SHT30;60105;54.956;73.412;2023-03-23T04:48:09;2.41;58.96
72202;SHT30;60105;54.956;73.412;2023-03-23T04:51:48;2.01;60.45
72202;SHT30;60105;54.956;73.412;2023-03-23T04:55:12;2.12;60.56
72202;SHT30;60105;54.956;73.412;2023-03-23T04:58:16;2.05;61.11
72202;SHT30;60105;54.956;73.412;2023-03-23T05:01:48;2.05;63.17
72202;SHT30;60105;54.956;73.412;2023-03-23T05:04:54;1.94;64.93
72202;SHT30;60105;54.956;73.412;2023-03-23T05:07:59;1.68;66.85
72202;SHT30;60105;54.956;73.412;2023-03-23T05:11:04;1.63;68.85
72202;SHT30;60105;54.956;73.412;2023-03-23T05:14:09;1.64;69.89
72202;SHT30;60105;54.956;73.412;2023-03-23T05:17:12;1.64;71.69
72202;SHT30;60105;54.956;73.412;2023-03-23T05:20:31;1.57;72.61
72202;SHT30;60105;54.956;73.412;2023-03-23T05:23:38;1.56;73.44
72202;SHT30;60105;54.956;73.412;2023-03-23T05:26:49;1.53;74.73
72202;SHT30;60105;54.956;73.412;2023-03-23T05:30:07;1.64;74.84
72202;SHT30;60105;54.956;73.412;2023-03-23T05:33:12;1.66;75.09
72202;SHT30;60105;54.956;73.412;2023-03-23T05:36:49;1.54;76.28
72202;SHT30;60105;54.956;73.412;2023-03-23T05:40:03;1.71;76.14
72202;SHT30;60105;54.956;73.412;2023-03-23T05:43:08;1.84;75.75
72202;SHT30;60105;54.956;73.412;2023-03-23T05:46:39;1.85;75.55
72202;SHT30;60105;54.956;73.412;2023-03-23T05:49:46;1.84;75.91
72202;SHT30;60105;54.956;73.412;2023-03-23T05:52:51;1.97;76.03
72202;SHT30;60105;54.956;73.412;2023-03-23T05:55:59;2.14;75.57
72202;SHT30;60105;54.956;73.412;2023-03-23T05:59:24;2.31;75.28
72202;SHT30;60105;54.956;73.412;2023-03-23T06:02:28;2.46;75.06
72202;SHT30;60105;54.956;73.412;2023-03-23T06:05:30;2.53;74.55
72202;SHT30;60105;54.956;73.412;2023-03-23T06:08:42;2.49;74.75
72202;SHT30;60105;54.956;73.412;2023-03-23T06:11:48;2.48;75.34
72202;SHT30;60105;54.956;73.412;2023-03-23T06:15:19;2.82;74.53
72202;SHT30;60105;54.956;73.412;2023-03-23T06:18:39;2.83;73.70
72202;SHT30;60105;54.956;73.412;2023-03-23T06:22:01;2.89;73.50
72202;SHT30;60105;54.956;73.412;2023-03-23T06:25:29;2.84;73.58
72202;SHT30;60105;54.956;73.412;2023-03-23T06:28:32;3.14;73.20
72202;SHT30;60105;54.956;73.412;2023-03-23T06:31:50;3.13;72.72
72202;SHT30;60105;54.956;73.412;2023-03-23T06:34:54;3.45;72.67
72202;SHT30;60105;54.956;73.412;2023-03-23T06:38:32;3.38;71.97
72202;SHT30;60105;54.956;73.412;2023-03-23T06:41:48;3.58;72.06
72202;SHT30;60105;54.956;73.412;2023-03-23T06:44:50;3.90;71.24
72202;SHT30;60105;54.956;73.412;2023-03-23T06:47:52;4.03;70.20
72202;SHT30;60105;54.956;73.412;2023-03-23T06:50:59;3.80;70.97
72202;SHT30;60105;54.956;73.412;2023-03-23T06:54:03;3.99;70.26
72202;SHT30;60105;54.956;73.412;2023-03-23T06:57:09;3.97;70.35
72202;SHT30;60105;54.956;73.412;2023-03-23T07:00:12;3.94;70.28
72202;SHT30;60105;54.956;73.412;2023-03-23T07:03:15;3.97;70.00
72202;SHT30;60105;54.956;73.412;2023-03-23T07:06:49;3.97;70.12
72202;SHT30;60105;54.956;73.412;2023-03-23T07:09:50;4.07;69.84
72202;SHT30;60105;54.956;73.412;2023-03-23T07:12:56;3.99;69.87
72202;SHT30;60105;54.956;73.412;2023-03-23T07:16:17;4.20;69.48
72202;SHT30;60105;54.956;73.412;2023-03-23T07:19:29;4.48;69.17
72202;SHT30;60105;54.956;73.412;2023-03-23T07:22:31;4.65;68.47
72202;SHT30;60105;54.956;73.412;2023-03-23T07:25:42;4.62;68.06
72202;SHT30;60105;54.956;73.412;2023-03-23T07:28:50;4.57;68.26
72202;SHT30;60105;54.956;73.412;2023-03-23T07:32:00;4.73;67.86
72202;SHT30;60105;54.956;73.412;2023-03-23T07:35:02;4.76;68.05
72202;SHT30;60105;54.956;73.412;2023-03-23T07:38:14;4.78;67.46
72202;SHT30;60105;54.956;73.412;2023-03-23T07:41:48;5.15;66.69
72202;SHT30;60105;54.956;73.412;2023-03-23T07:44:56;4.93;67.14
72202;SHT30;60105;54.956;73.412;2023-03-23T07:48:03;4.73;67.10
72202;SHT30;60105;54.956;73.412;2023-03-23T07:51:48;4.60;68.12
72202;SHT30;60105;54.956;73.412;2023-03-23T07:54:51;4.78;67.53
72202;SHT30;60105;54.956;73.412;2023-03-23T07:58:04;5.09;66.76
72202;SHT30;60105;54.956;73.412;2023-03-23T08:01:48;5.22;66.34
72202;SHT30;60105;54.956;73.412;2023-03-23T08:05:06;5.26;65.79
72202;SHT30;60105;54.956;73.412;2023-03-23T08:08:09;5.26;65.87
72202;SHT30;60105;54.956;73.412;2023-03-23T08:11:53;5.02;66.28
72202;SHT30;60105;54.956;73.412;2023-03-23T08:15:11;5.09;66.42
72202;SHT30;60105;54.956;73.412;2023-03-23T08:18:31;5.39;65.55
72202;SHT30;60105;54.956;73.412;2023-03-23T08:22:05;5.77;63.81
72202;SHT30;60105;54.956;73.412;2023-03-23T08:25:16;6.01;62.43
72202;SHT30;60105;54.956;73.412;2023-03-23T08:28:38;5.77;63.38
72202;SHT30;60105;54.956;73.412;2023-03-23T08:31:57;5.78;62.55
72202;SHT30;60105;54.956;73.412;2023-03-23T08:35:04;5.85;60.46
72202;SHT30;60105;54.956;73.412;2023-03-23T08:38:20;5.64;59.49
72202;SHT30;60105;54.956;73.412;2023-03-23T08:41:48;5.19;58.09
72202;SHT30;60105;54.956;73.412;2023-03-23T08:45:14;5.36;59.13
72202;SHT30;60105;54.956;73.412;2023-03-23T08:48:40;5.43;58.45
72202;SHT30;60105;54.956;73.412;2023-03-23T08:52:00;5.34;58.88
72202;SHT30;60105;54.956;73.412;2023-03-23T08:55:20;5.75;56.50
72202;SHT30;60105;54.956;73.412;2023-03-23T08:58:55;5.99;56.25
72202;SHT30;60105;54.956;73.412;2023-03-23T09:02:11;5.74;55.79
72202;SHT30;60105;54.956;73.412;2023-03-23T09:05:27;5.88;55.44
72202;SHT30;60105;54.956;73.412;2023-03-23T09:08:47;5.78;54.36
72202;SHT30;60105;54.956;73.412;2023-03-23T09:11:48;5.62;54.52
72202;SHT30;60105;54.956;73.412;2023-03-23T09:14:49;5.60;54.70
72202;SHT30;60105;54.956;73.412;2023-03-23T09:18:01;5.50;54.10
72202;SHT30;60105;54.956;73.412;2023-03-23T09:21:48;5.55;54.30
72202;SHT30;60105;54.956;73.412;2023-03-23T09:24:49;5.58;52.98
72202;SHT30;60105;54.956;73.412;2023-03-23T09:27:55;5.77;53.30
72202;SHT30;60105;54.956;73.412;2023-03-23T09:30:57;5.95;53.06
72202;SHT30;60105;54.956;73.412;2023-03-23T09:34:00;5.92;52.67
72202;SHT30;60105;54.956;73.412;2023-03-23T09:37:01;5.91;52.66
72202;SHT30;60105;54.956;73.412;2023-03-23T09:40:10;5.89;53.34
72202;SHT30;60105;54.956;73.412;2023-03-23T09:50:21;6.01;53.20
72202;SHT30;60105;54.956;73.412;2023-03-23T09:53:37;6.19;52.71
72202;SHT30;60105;54.956;73.412;2023-03-23T09:56:49;6.36;51.66
72202;SHT30;60105;54.956;73.412;2023-03-23T10:03:27;6.20;51.50
72202;SHT30;60105;54.956;73.412;2023-03-23T10:06:48;6.19;50.60
72202;SHT30;60105;54.956;73.412;2023-03-23T10:09:53;6.09;51.13
72202;SHT30;60105;54.956;73.412;2023-03-23T10:13:02;6.19;50.92
72202;SHT30;60105;54.956;73.412;2023-03-23T10:16:25;5.98;50.05
72202;SHT30;60105;54.956;73.412;2023-03-23T10:19:34;5.81;49.85
72202;SHT30;60105;54.956;73.412;2023-03-23T10:30:24;5.85;48.97
72202;SHT30;60105;54.956;73.412;2023-03-23T10:33:38;6.08;48.75
72202;SHT30;60105;54.956;73.412;2023-03-23T10:40:22;6.28;46.69
72202;SHT30;60105;54.956;73.412;2023-03-23T10:43:34;5.95;47.20
72202;SHT30;60105;54.956;73.412;2023-03-23T10:46:40;5.88;47.79
72202;SHT30;60105;54.956;73.412;2023-03-23T10:49:50;5.87;47.96
72202;SHT30;60105;54.956;73.412;2023-03-23T10:52:54;5.84;47.39
72202;SHT30;60105;54.956;73.412;2023-03-23T10:56:48;5.89;47.77
72202;SHT30;60105;54.956;73.412;2023-03-23T10:59:51;5.91;48.12
72202;SHT30;60105;54.956;73.412;2023-03-23T11:03:17;5.82;49.18
72202;SHT30;60105;54.956;73.412;2023-03-23T11:06:52;5.77;49.24
72202;SHT30;60105;54.956;73.412;2023-03-23T11:09:56;5.69;49.72
72202;SHT30;60105;54.956;73.412;2023-03-23T11:13:00;5.46;47.79
72202;SHT30;60105;54.956;73.412;2023-03-23T11:16:32;5.16;49.49
72202;SHT30;60105;54.956;73.412;2023-03-23T11:19:36;5.09;49.82
72202;SHT30;60105;54.956;73.412;2023-03-23T11:22:38;5.08;49.33
72202;SHT30;60105;54.956;73.412;2023-03-23T11:29:17;5.23;49.63
72202;SHT30;60105;54.956;73.412;2023-03-23T11:32:25;5.09;49.69
72202;SHT30;60105;54.956;73.412;2023-03-23T11:35:28;5.23;48.51
72202;SHT30;60105;54.956;73.412;2023-03-23T11:38:32;5.26;49.07
72202;SHT30;60105;54.956;73.412;2023-03-23T11:41:48;5.34;48.30
72202;SHT30;60105;54.956;73.412;2023-03-23T11:45:19;5.26;48.49
72202;SHT30;60105;54.956;73.412;2023-03-23T11:51:51;4.97;48.15
72202;SHT30;60105;54.956;73.412;2023-03-23T11:55:10;4.61;48.63
72202;SHT30;60105;54.956;73.412;2023-03-23T11:58:16;4.52;48.09
72202;SHT30;60105;54.956;73.412;2023-03-23T12:01:50;4.51;47.89
72202;SHT30;60105;54.956;73.412;2023-03-23T12:11:55;4.67;48.90
72202;SHT30;60105;54.956;73.412;2023-03-23T12:15:34;4.58;49.40
72202;SHT30;60105;54.956;73.412;2023-03-23T12:22:28;4.54;49.35
72202;SHT30;60105;54.956;73.412;2023-03-23T12:28:57;4.36;49.99
72202;SHT30;60105;54.956;73.412;2023-03-23T12:38:56;4.09;51.32
72202;SHT30;60105;54.956;73.412;2023-03-23T12:45:45;3.92;52.20
72202;SHT30;60105;54.956;73.412;2023-03-23T12:48:52;3.80;53.00
72202;SHT30;60105;54.956;73.412;2023-03-23T12:52:01;3.80;52.91
72202;SHT30;60105;54.956;73.412;2023-03-23T12:55:34;3.85;52.73
72202;SHT30;60105;54.956;73.412;2023-03-23T12:58:50;3.87;52.92
72202;SHT30;60105;54.956;73.412;2023-03-23T13:05:36;3.82;53.31
72202;SHT30;60105;54.956;73.412;2023-03-23T13:08:44;3.83;53.48
72202;SHT30;60105;54.956;73.412;2023-03-23T13:11:55;3.82;53.79
72202;SHT30;60105;54.956;73.412;2023-03-23T13:15:07;3.82;54.02
72202;SHT30;60105;54.956;73.412;2023-03-23T13:21:50;3.71;57.50
72202;SHT30;60105;54.956;73.412;2023-03-23T13:25:03;3.65;56.53
72202;SHT30;60105;54.956;73.412;2023-03-23T13:28:17;3.52;56.71
72202;SHT30;60105;54.956;73.412;2023-03-23T13:31:48;3.46;56.75
72202;SHT30;60105;54.956;73.412;2023-03-23T13:34:51;3.43;57.19
72202;SHT30;60105;54.956;73.412;2023-03-23T13:38:18;3.38;56.94
72202;SHT30;60105;54.956;73.412;2023-03-23T13:42:16;3.28;57.98
72202;SHT30;60105;54.956;73.412;2023-03-23T13:48:24;3.39;57.62
72202;SHT30;60105;54.956;73.412;2023-03-23T13:51:53;3.34;59.05
72202;SHT30;60105;54.956;73.412;2023-03-23T13:58:25;3.34;59.25
72202;SHT30;60105;54.956;73.412;2023-03-23T14:01:48;3.30;59.27
72202;SHT30;60105;54.956;73.412;2023-03-23T14:04:50;3.38;58.43
72202;SHT30;60105;54.956;73.412;2023-03-23T14:08:03;3.28;58.54
72202;SHT30;60105;54.956;73.412;2023-03-23T14:11:59;3.24;58.22
72202;SHT30;60105;54.956;73.412;2023-03-23T14:15:04;3.10;58.47
72202;SHT30;60105;54.956;73.412;2023-03-23T14:18:13;3.05;58.56
72202;SHT30;60105;54.956;73.412;2023-03-23T14:21:54;3.00;58.87
72202;SHT30;60105;54.956;73.412;2023-03-23T14:25:01;3.03;59.17
72202;SHT30;60105;54.956;73.412;2023-03-23T14:28:18;2.93;58.86
72202;SHT30;60105;54.956;73.412;2023-03-23T14:31:55;2.94;59.13
72202;SHT30;60105;54.956;73.412;2023-03-23T14:34:57;3.00;58.68
72202;SHT30;60105;54.956;73.412;2023-03-23T14:37:58;3.05;58.62
72202;SHT30;60105;54.956;73.412;2023-03-23T14:41:04;2.96;59.30
72202;SHT30;60105;54.956;73.412;2023-03-23T14:44:10;2.97;59.05
72202;SHT30;60105;54.956;73.412;2023-03-23T14:47:25;2.90;58.83
72202;SHT30;60105;54.956;73.412;2023-03-23T14:50:40;2.93;58.66
72202;SHT30;60105;54.956;73.412;2023-03-23T14:53:42;2.86;58.77
72202;SHT30;60105;54.956;73.412;2023-03-23T14:56:55;2.92;58.49
72202;SHT30;60105;54.956;73.412;2023-03-23T14:59:56;2.97;58.33
72202;SHT30;60105;54.956;73.412;2023-03-23T15:02:59;2.99;58.06
72202;SHT30;60105;54.956;73.412;2023-03-23T15:06:06;2.84;59.02
72202;SHT30;60105;54.956;73.412;2023-03-23T15:09:13;2.92;58.54
72202;SHT30;60105;54.956;73.412;2023-03-23T15:12:24;2.96;58.81
72202;SHT30;60105;54.956;73.412;2023-03-23T15:15:32;3.05;58.30
72202;SHT30;60105;54.956;73.412;2023-03-23T15:18:38;3.08;58.07
72202;SHT30;60105;54.956;73.412;2023-03-23T15:28:27;2.73;59.19
72202;SHT30;60105;54.956;73.412;2023-03-23T15:31:48;2.72;59.10
72202;SHT30;60105;54.956;73.412;2023-03-23T15:34:51;2.66;59.30
72202;SHT30;60105;54.956;73.412;2023-03-23T15:37:58;2.62;59.63
72202;SHT30;60105;54.956;73.412;2023-03-23T15:41:04;2.59;59.87
72202;SHT30;60105;54.956;73.412;2023-03-23T15:44:18;2.55;60.59
72202;SHT30;60105;54.956;73.412;2023-03-23T15:47:21;2.55;59.97
72202;SHT30;60105;54.956;73.412;2023-03-23T15:50:34;2.57;59.95
72202;SHT30;60105;54.956;73.412;2023-03-23T15:53:37;2.56;59.73
72202;SHT30;60105;54.956;73.412;2023-03-23T15:56:48;2.43;60.22
72202;SHT30;60105;54.956;73.412;2023-03-23T15:59:59;2.43;60.14
72202;SHT30;60105;54.956;73.412;2023-03-23T16:03:04;2.33;60.56
72202;SHT30;60105;54.956;73.412;2023-03-23T16:06:49;2.25;60.72
72202;SHT30;60105;54.956;73.412;2023-03-23T16:09:51;2.31;60.32
72202;SHT30;60105;54.956;73.412;2023-03-23T16:12:52;2.26;60.54
72202;SHT30;60105;54.956;73.412;2023-03-23T16:16:05;2.36;59.87
72202;SHT30;60105;54.956;73.412;2023-03-23T16:19:11;2.28;60.28
72202;SHT30;60105;54.956;73.412;2023-03-23T16:22:12;2.20;60.98
72202;SHT30;60105;54.956;73.412;2023-03-23T16:25:23;2.20;60.61
72202;SHT30;60105;54.956;73.412;2023-03-23T16:28:25;2.22;61.15
72202;SHT30;60105;54.956;73.412;2023-03-23T16:31:48;2.15;60.62
72202;SHT30;60105;54.956;73.412;2023-03-23T16:34:49;2.20;60.69
72202;SHT30;60105;54.956;73.412;2023-03-23T16:37:53;2.17;60.54
72202;SHT30;60105;54.956;73.412;2023-03-23T16:40:55;2.10;60.87
72202;SHT30;60105;54.956;73.412;2023-03-23T16:43:57;2.07;61.11
72202;SHT30;60105;54.956;73.412;2023-03-23T16:46:58;2.08;60.88
72202;SHT30;60105;54.956;73.412;2023-03-23T16:50:12;1.94;61.64
72202;SHT30;60105;54.956;73.412;2023-03-23T16:53:14;1.90;61.59
72202;SHT30;60105;54.956;73.412;2023-03-23T16:56:48;1.85;61.86
72202;SHT30;60105;54.956;73.412;2023-03-23T16:59:49;1.84;63.00
72202;SHT30;60105;54.956;73.412;2023-03-23T17:02:56;1.81;63.04
72202;SHT30;60105;54.956;73.412;2023-03-23T17:05:59;1.83;63.61
72202;SHT30;60105;54.956;73.412;2023-03-23T17:09:01;1.78;63.22
72202;SHT30;60105;54.956;73.412;2023-03-23T17:12:03;1.71;63.46
72202;SHT30;60105;54.956;73.412;2023-03-23T17:15:06;1.70;63.66
72202;SHT30;60105;54.956;73.412;2023-03-23T17:18:08;1.62;64.08
72202;SHT30;60105;54.956;73.412;2023-03-23T17:21:48;1.59;64.74
72202;SHT30;60105;54.956;73.412;2023-03-23T17:24:49;1.60;64.84
72202;SHT30;60105;54.956;73.412;2023-03-23T17:27:52;1.57;65.12
72202;SHT30;60105;54.956;73.412;2023-03-23T17:30:53;1.53;65.25
72202;SHT30;60105;54.956;73.412;2023-03-23T17:33:55;1.46;66.39
72202;SHT30;60105;54.956;73.412;2023-03-23T17:36:57;1.45;65.42
72202;SHT30;60105;54.956;73.412;2023-03-23T17:39:58;1.40;65.99
72202;SHT30;60105;54.956;73.412;2023-03-23T17:42:59;1.29;65.85
72202;SHT30;60105;54.956;73.412;2023-03-23T17:46:01;1.23;66.08
72202;SHT30;60105;54.956;73.412;2023-03-23T17:49:02;1.15;66.54
72202;SHT30;60105;54.956;73.412;2023-03-23T17:52:09;1.18;65.83
72202;SHT30;60105;54.956;73.412;2023-03-23T17:55:10;1.09;66.17
72202;SHT30;60105;54.956;73.412;2023-03-23T17:58:11;1.11;65.85
72202;SHT30;60105;54.956;73.412;2023-03-23T18:01:48;1.05;66.03
72202;SHT30;60105;54.956;73.412;2023-03-23T18:04:49;1.04;66.64
72202;SHT30;60105;54.956;73.412;2023-03-23T18:07:55;0.95;66.37
72202;SHT30;60105;54.956;73.412;2023-03-23T18:11:02;0.92;66.75
72202;SHT30;60105;54.956;73.412;2023-03-23T18:14:03;0.87;66.69
72202;SHT30;60105;54.956;73.412;2023-03-23T18:17:15;0.81;66.40
72202;SHT30;60105;54.956;73.412;2023-03-23T18:20:16;0.78;66.84
72202;SHT30;60105;54.956;73.412;2023-03-23T18:23:17;0.74;66.58
72202;SHT30;60105;54.956;73.412;2023-03-23T18:26:48;0.70;66.65
72202;SHT30;60105;54.956;73.412;2023-03-23T18:29:59;0.58;67.43
72202;SHT30;60105;54.956;73.412;2023-03-23T18:33:02;0.52;67.63
72202;SHT30;60105;54.956;73.412;2023-03-23T18:36:04;0.50;68.04
72202;SHT30;60105;54.956;73.412;2023-03-23T18:39:07;0.49;67.73
72202;SHT30;60105;54.956;73.412;2023-03-23T18:42:10;0.47;67.86
72202;SHT30;60105;54.956;73.412;2023-03-23T18:45:12;0.44;67.93
72202;SHT30;60105;54.956;73.412;2023-03-23T18:48:13;0.43;67.82
72202;SHT30;60105;54.956;73.412;2023-03-23T18:51:48;0.43;68.48
72202;SHT30;60105;54.956;73.412;2023-03-23T18:54:59;0.46;68.22
72202;SHT30;60105;54.956;73.412;2023-03-23T18:58:00;0.37;68.46
72202;SHT30;60105;54.956;73.412;2023-03-23T19:01:08;0.32;68.34
72202;SHT30;60105;54.956;73.412;2023-03-23T19:04:19;0.26;68.74
72202;SHT30;60105;54.956;73.412;2023-03-23T19:07:26;0.15;69.02
72202;SHT30;60105;54.956;73.412;2023-03-23T19:10:28;0.15;68.79
72202;SHT30;60105;54.956;73.412;2023-03-23T19:13:35;0.09;69.09
72202;SHT30;60105;54.956;73.412;2023-03-23T19:16:47;0.03;69.45
72202;SHT30;60105;54.956;73.412;2023-03-23T19:19:53;0.02;69.98
72202;SHT30;60105;54.956;73.412;2023-03-23T19:22:54;0.05;69.25
72202;SHT30;60105;54.956;73.412;2023-03-23T19:25:56;0.02;69.21
72202;SHT30;60105;54.956;73.412;2023-03-23T19:28:57;-0.08;69.34
72202;SHT30;60105;54.956;73.412;2023-03-23T19:31:58;-0.09;69.48
72202;SHT30;60105;54.956;73.412;2023-03-23T19:35:00;-0.11;70.24
72202;SHT30;60105;54.956;73.412;2023-03-23T19:38:06;-0.09;69.71
72202;SHT30;60105;54.956;73.412;2023-03-23T19:41:48;-0.14;70.58
72202;SHT30;60105;54.956;73.412;2023-03-23T19:44:50;-0.16;70.32
72202;SHT30;60105;54.956;73.412;2023-03-23T19:48:01;-0.21;69.98
72202;SHT30;60105;54.956;73.412;2023-03-23T19:51:48;-0.26;70.31
72202;SHT30;60105;54.956;73.412;2023-03-23T19:54:49;-0.35;70.37
72202;SHT30;60105;54.956;73.412;2023-03-23T19:57:50;-0.35;70.39
72202;SHT30;60105;54.956;73.412;2023-03-23T20:00:52;-0.32;70.23
72202;SHT30;60105;54.956;73.412;2023-03-23T20:03:53;-0.32;70.95
72202;SHT30;60105;54.956;73.412;2023-03-23T20:06:57;-0.32;70.44
72202;SHT30;60105;54.956;73.412;2023-03-23T20:09:58;-0.40;70.59
72202;SHT30;60105;54.956;73.412;2023-03-23T20:13:01;-0.42;70.98
72202;SHT30;60105;54.956;73.412;2023-03-23T20:16:02;-0.45;70.89
72202;SHT30;60105;54.956;73.412;2023-03-23T20:19:04;-0.50;71.15
72202;SHT30;60105;54.956;73.412;2023-03-23T20:22:05;-0.57;71.49
72202;SHT30;60105;54.956;73.412;2023-03-23T20:25:17;-0.62;71.28
72202;SHT30;60105;54.956;73.412;2023-03-23T20:28:19;-0.63;71.89
72202;SHT30;60105;54.956;73.412;2023-03-23T20:31:48;-0.67;71.80
72202;SHT30;60105;54.956;73.412;2023-03-23T20:34:55;-0.72;71.78
72202;SHT30;60105;54.956;73.412;2023-03-23T20:38:01;-0.77;72.31
72202;SHT30;60105;54.956;73.412;2023-03-23T20:41:49;-0.81;72.88
72202;SHT30;60105;54.956;73.412;2023-03-23T20:44:54;-0.85;72.52
72202;SHT30;60105;54.956;73.412;2023-03-23T20:47:56;-0.88;72.54
72202;SHT30;60105;54.956;73.412;2023-03-23T20:50:58;-0.85;72.16
72202;SHT30;60105;54.956;73.412;2023-03-23T20:54:00;-0.95;72.25
72202;SHT30;60105;54.956;73.412;2023-03-23T20:57:02;-0.97;72.85
72202;SHT30;60105;54.956;73.412;2023-03-23T21:00:04;-1.04;72.42
72202;SHT30;60105;54.956;73.412;2023-03-23T21:03:12;-1.08;72.19
72202;SHT30;60105;54.956;73.412;2023-03-23T21:06:48;-1.30;72.75
72202;SHT30;60105;54.956;73.412;2023-03-23T21:09:54;-1.32;73.82
72202;SHT30;60105;54.956;73.412;2023-03-23T21:12:56;-1.32;73.50
72202;SHT30;60105;54.956;73.412;2023-03-23T21:15:59;-1.38;73.39
72202;SHT30;60105;54.956;73.412;2023-03-23T21:19:03;-1.45;73.61
72202;SHT30;60105;54.956;73.412;2023-03-23T21:22:04;-1.38;74.33
72202;SHT30;60105;54.956;73.412;2023-03-23T21:25:06;-1.39;73.80
72202;SHT30;60105;54.956;73.412;2023-03-23T21:28:10;-1.38;74.13
72202;SHT30;60105;54.956;73.412;2023-03-23T21:31:49;-1.41;74.14
72202;SHT30;60105;54.956;73.412;2023-03-23T21:34:50;-1.39;73.52
72202;SHT30;60105;54.956;73.412;2023-03-23T21:37:52;-1.31;73.67
72202;SHT30;60105;54.956;73.412;2023-03-23T21:40:55;-1.41;73.52